createdAt,value
2023-07-24T00:00:17.823Z,19.19
2023-07-24T00:02:44.750Z,19.17
2023-07-24T00:05:11.666Z,19.09
2023-07-24T00:07:38.382Z,19.04
2023-07-24T00:10:05.499Z,18.96
2023-07-24T00:12:32.252Z,18.92
2023-07-24T00:14:59.046Z,18.84
2023-07-24T00:17:26.042Z,18.78
2023-07-24T00:19:52.910Z,18.74
2023-07-24T00:22:19.612Z,18.67
2023-07-24T00:24:46.368Z,18.60
2023-07-24T00:27:13.463Z,18.53
2023-07-24T00:29:40.469Z,18.46
2023-07-24T00:32:07.572Z,18.34
2023-07-24T00:34:34.258Z,18.28
2023-07-24T00:37:01.343Z,18.24
2023-07-24T00:39:29.893Z,18.08
2023-07-24T00:41:56.901Z,17.93
2023-07-24T00:44:23.609Z,17.77
2023-07-24T00:46:50.657Z,17.69
2023-07-24T00:49:17.840Z,17.56
2023-07-24T00:51:46.175Z,17.47
2023-07-24T00:54:13.446Z,17.37
2023-07-24T00:56:40.764Z,17.32
2023-07-24T00:59:07.674Z,17.29
2023-07-24T01:01:34.853Z,17.30
2023-07-24T01:04:01.644Z,17.34
2023-07-24T01:06:29.013Z,17.31
2023-07-24T01:08:56.677Z,17.09
2023-07-24T01:11:30.342Z,16.96
2023-07-24T01:14:03.564Z,16.88
2023-07-24T01:16:38.769Z,16.84
2023-07-24T01:19:07.374Z,16.87
2023-07-24T01:21:35.331Z,17.00
2023-07-24T01:24:13.205Z,17.04
2023-07-24T01:26:40.385Z,17.06
2023-07-24T01:29:07.065Z,17.08
2023-07-24T01:31:33.910Z,17.02
2023-07-24T01:34:00.869Z,16.92
2023-07-24T01:36:27.997Z,16.80
2023-07-24T01:38:55.398Z,16.68
2023-07-24T01:41:22.236Z,16.57
2023-07-24T01:43:49.075Z,16.52
2023-07-24T01:46:15.904Z,16.46
2023-07-24T01:48:42.746Z,16.40
2023-07-24T01:51:09.768Z,16.33
2023-07-24T01:53:36.785Z,16.27
2023-07-24T01:56:03.467Z,16.23
2023-07-24T01:58:30.376Z,16.23
2023-07-24T02:00:57.837Z,16.20
2023-07-24T02:03:24.704Z,16.19
2023-07-24T02:05:52.925Z,16.18
2023-07-24T02:08:19.928Z,16.16
2023-07-24T02:10:49.728Z,16.15
2023-07-24T02:13:16.718Z,16.17
2023-07-24T02:15:43.721Z,16.15
2023-07-24T02:18:10.756Z,16.17
2023-07-24T02:20:37.858Z,16.17
2023-07-24T02:23:04.784Z,16.16
2023-07-24T02:25:31.665Z,16.18
2023-07-24T02:27:58.605Z,16.20
2023-07-24T02:30:25.601Z,16.24
2023-07-24T02:32:52.624Z,16.27
2023-07-24T02:35:19.478Z,16.24
2023-07-24T02:37:46.616Z,16.19
2023-07-24T02:40:13.623Z,16.15
2023-07-24T02:42:40.543Z,16.17
2023-07-24T02:45:12.332Z,16.18
2023-07-24T02:47:39.503Z,16.14
2023-07-24T02:50:06.739Z,16.11
2023-07-24T02:52:33.777Z,16.13
2023-07-24T02:55:00.693Z,16.11
2023-07-24T02:57:27.676Z,16.09
2023-07-24T02:59:54.598Z,16.08
2023-07-24T03:02:21.727Z,16.09
2023-07-24T03:04:48.580Z,16.19
2023-07-24T03:07:15.419Z,16.28
2023-07-24T03:09:42.317Z,16.35
2023-07-24T03:12:09.341Z,16.42
2023-07-24T03:14:36.362Z,16.38
2023-07-24T03:17:03.727Z,16.36
2023-07-24T03:19:30.890Z,16.39
2023-07-24T03:21:57.793Z,16.48
2023-07-24T03:24:24.564Z,16.57
2023-07-24T03:26:51.625Z,16.64
2023-07-24T03:29:18.434Z,16.71
2023-07-24T03:31:45.302Z,16.79
2023-07-24T03:34:12.200Z,16.86
2023-07-24T03:36:42.935Z,16.81
2023-07-24T03:39:12.630Z,16.77
2023-07-24T03:41:40.188Z,16.79
2023-07-24T03:44:07.081Z,16.83
2023-07-24T03:46:34.023Z,16.89
2023-07-24T03:49:01.713Z,16.98
2023-07-24T03:51:28.757Z,17.15
2023-07-24T03:53:55.652Z,17.13
2023-07-24T03:56:22.433Z,16.98
2023-07-24T03:58:49.381Z,16.98
2023-07-24T04:01:16.154Z,17.03
2023-07-24T04:03:46.763Z,17.13
2023-07-24T04:06:13.541Z,17.12
2023-07-24T04:08:40.587Z,16.99
2023-07-24T04:11:07.393Z,17.01
2023-07-24T04:13:34.252Z,17.08
2023-07-24T04:16:01.276Z,17.16
2023-07-24T04:18:28.261Z,17.13
2023-07-24T04:20:56.723Z,17.08
2023-07-24T04:23:23.774Z,17.06
2023-07-24T04:25:51.089Z,16.99
2023-07-24T04:28:17.872Z,16.99
2023-07-24T04:30:44.665Z,16.99
2023-07-24T04:33:11.431Z,16.97
2023-07-24T04:35:38.309Z,17.02
2023-07-24T04:38:04.999Z,17.08
2023-07-24T04:40:31.771Z,17.07
2023-07-24T04:42:59.432Z,17.14
2023-07-24T04:45:26.190Z,17.26
2023-07-24T04:47:52.907Z,17.38
2023-07-24T04:50:19.787Z,17.56
2023-07-24T04:52:46.539Z,17.63
2023-07-24T04:55:13.286Z,17.74
2023-07-24T04:57:40.176Z,17.85
2023-07-24T05:00:07.364Z,17.87
2023-07-24T05:02:34.180Z,17.85
2023-07-24T05:05:01.079Z,17.82
2023-07-24T05:07:27.812Z,17.81
2023-07-24T05:09:54.558Z,17.80
2023-07-24T05:12:21.333Z,17.81
2023-07-24T05:14:48.185Z,17.84
2023-07-24T05:17:14.986Z,17.86
2023-07-24T05:19:41.865Z,17.89
2023-07-24T05:22:09.128Z,17.77
2023-07-24T05:24:35.939Z,17.60
2023-07-24T05:27:02.740Z,17.52
2023-07-24T05:29:29.468Z,17.41
2023-07-24T05:31:56.904Z,17.42
2023-07-24T05:34:23.876Z,17.47
2023-07-24T05:36:50.725Z,17.64
2023-07-24T05:39:17.463Z,18.02
2023-07-24T05:41:44.146Z,18.43
2023-07-24T05:44:10.934Z,18.82
2023-07-24T05:46:37.711Z,19.21
2023-07-24T05:49:05.112Z,19.66
2023-07-24T05:51:31.810Z,20.15
2023-07-24T05:53:58.689Z,20.82
2023-07-24T05:56:25.535Z,21.55
2023-07-24T05:58:52.363Z,22.80
2023-07-24T06:01:19.150Z,23.34
2023-07-24T06:03:46.241Z,23.08
2023-07-24T06:06:15.686Z,22.71
2023-07-24T06:08:42.445Z,22.52
2023-07-24T06:11:09.224Z,22.54
2023-07-24T06:13:35.948Z,22.48
2023-07-24T06:16:02.685Z,22.48
2023-07-24T06:18:31.876Z,22.39
2023-07-24T06:20:58.645Z,22.27
2023-07-24T06:23:25.333Z,22.02
2023-07-24T06:25:53.473Z,21.86
2023-07-24T06:28:20.480Z,21.72
2023-07-24T06:30:47.263Z,21.42
2023-07-24T06:33:14.029Z,21.18
2023-07-24T06:35:40.781Z,20.91
2023-07-24T06:38:09.608Z,20.79
2023-07-24T06:40:36.419Z,20.55
2023-07-24T06:43:03.093Z,20.39
2023-07-24T06:45:29.864Z,20.31
2023-07-24T06:47:56.680Z,20.14
2023-07-24T06:50:23.745Z,19.94
2023-07-24T06:52:52.423Z,19.75
2023-07-24T06:55:19.071Z,19.70
2023-07-24T06:57:47.820Z,19.69
2023-07-24T07:00:15.569Z,19.63
2023-07-24T07:02:42.394Z,19.58
2023-07-24T07:05:09.249Z,19.46
2023-07-24T07:07:36.062Z,19.41
2023-07-24T07:10:03.074Z,19.27
2023-07-24T07:12:30.058Z,19.18
2023-07-24T07:14:56.771Z,19.09
2023-07-24T07:17:23.648Z,19.04
2023-07-24T07:19:50.480Z,19.00
2023-07-24T07:22:17.147Z,19.11
2023-07-24T07:24:45.298Z,19.41
2023-07-24T07:27:12.071Z,19.96
2023-07-24T07:29:38.801Z,20.56
2023-07-24T07:32:05.810Z,21.08
2023-07-24T07:34:32.513Z,21.51
2023-07-24T07:36:59.241Z,21.93
2023-07-24T07:39:33.836Z,22.49
2023-07-24T07:44:34.710Z,24.04
2023-07-24T07:47:01.411Z,25.05
2023-07-24T07:49:31.040Z,25.65
2023-07-24T07:51:58.377Z,25.89
2023-07-24T07:54:25.000Z,27.12
2023-07-24T07:56:51.750Z,28.54
2023-07-24T07:59:18.402Z,29.52
2023-07-24T08:01:47.027Z,30.02
2023-07-24T08:04:13.785Z,30.19
2023-07-24T08:06:40.602Z,30.15
2023-07-24T08:09:07.312Z,30.20
2023-07-24T08:11:34.079Z,29.89
2023-07-24T08:14:00.870Z,30.21
2023-07-24T08:16:27.877Z,30.77
2023-07-24T08:18:57.408Z,31.12
2023-07-24T08:21:25.697Z,32.28
2023-07-24T08:23:52.432Z,31.36
2023-07-24T08:26:19.142Z,30.45
2023-07-24T08:28:45.987Z,29.73
2023-07-24T08:31:13.006Z,28.96
2023-07-24T08:33:39.877Z,29.03
2023-07-24T08:36:07.555Z,30.17
2023-07-24T08:38:34.725Z,32.75
2023-07-24T08:41:02.682Z,35.70
2023-07-24T08:43:30.063Z,37.95
2023-07-24T08:45:56.807Z,35.57
2023-07-24T08:48:23.577Z,33.41
2023-07-24T08:50:50.850Z,32.61
2023-07-24T08:53:17.919Z,32.43
2023-07-24T08:55:45.181Z,31.74
2023-07-24T08:58:11.931Z,30.97
2023-07-24T09:00:38.819Z,30.19
2023-07-24T09:03:06.589Z,29.51
2023-07-24T09:05:33.355Z,28.93
2023-07-24T09:08:00.146Z,28.81
2023-07-24T09:10:27.529Z,29.29
2023-07-24T09:12:54.308Z,29.68
2023-07-24T09:15:21.089Z,30.37
2023-07-24T09:17:54.604Z,30.43
2023-07-24T09:20:32.121Z,30.28
2023-07-24T09:23:12.031Z,29.80
2023-07-24T09:25:41.719Z,31.54
2023-07-24T09:28:15.125Z,32.25
2023-07-24T09:30:42.153Z,34.15
2023-07-24T09:33:09.329Z,35.90
2023-07-24T09:35:36.051Z,36.87
2023-07-24T09:38:03.666Z,36.10
2023-07-24T09:40:38.111Z,34.53
2023-07-24T09:43:30.009Z,36.05
2023-07-24T09:45:52.486Z,37.26
2023-07-24T09:50:50.480Z,37.31
2023-07-24T09:53:34.071Z,36.32
2023-07-24T09:56:02.856Z,35.49
2023-07-24T09:58:29.667Z,35.67
2023-07-24T10:00:56.694Z,35.14
2023-07-24T10:03:23.642Z,34.89
2023-07-24T10:05:51.999Z,34.80
2023-07-24T10:08:19.692Z,35.13
2023-07-24T10:10:46.719Z,35.63
2023-07-24T10:13:16.339Z,35.73
2023-07-24T10:15:43.823Z,35.78
2023-07-24T10:18:10.629Z,36.01
2023-07-24T10:20:37.970Z,35.61
2023-07-24T10:23:04.822Z,35.31
2023-07-24T10:25:35.400Z,34.63
2023-07-24T10:28:17.700Z,33.68
2023-07-24T10:30:45.647Z,32.77
2023-07-24T10:33:19.144Z,31.90
2023-07-24T10:35:49.476Z,31.26
2023-07-24T10:38:17.023Z,30.58
2023-07-24T10:40:44.219Z,29.87
2023-07-24T10:43:14.601Z,29.08
2023-07-24T10:45:48.748Z,28.46
2023-07-24T10:48:15.902Z,27.93
2023-07-24T10:50:44.050Z,27.57
2023-07-24T10:53:11.395Z,27.54
2023-07-24T10:55:38.324Z,27.56
2023-07-24T10:58:05.018Z,27.57
2023-07-24T11:00:31.815Z,27.42
2023-07-24T11:02:58.701Z,27.41
2023-07-24T11:05:25.712Z,27.36
2023-07-24T11:07:52.436Z,27.33
2023-07-24T11:10:21.188Z,27.39
2023-07-24T11:12:48.816Z,27.51
2023-07-24T11:15:15.592Z,27.60
2023-07-24T11:17:43.026Z,27.78
2023-07-24T11:20:13.616Z,27.77
2023-07-24T11:22:41.123Z,27.81
2023-07-24T11:25:08.445Z,28.17
2023-07-24T11:27:39.218Z,29.18
2023-07-24T11:30:06.440Z,30.19
2023-07-24T11:32:33.278Z,30.98
2023-07-24T11:35:00.051Z,31.65
2023-07-24T11:37:26.851Z,31.96
2023-07-24T11:40:00.528Z,31.35
2023-07-24T11:42:28.692Z,30.63
2023-07-24T11:44:55.515Z,30.14
2023-07-24T11:47:22.574Z,29.85
2023-07-24T11:49:59.837Z,29.97
2023-07-24T11:52:26.649Z,29.52
2023-07-24T11:55:02.485Z,29.08
2023-07-24T11:57:30.250Z,28.56
2023-07-24T11:59:59.206Z,28.45
2023-07-24T12:02:29.359Z,28.43
2023-07-24T12:04:59.856Z,28.41
2023-07-24T12:07:37.196Z,28.25
2023-07-24T12:10:04.703Z,28.26
2023-07-24T12:12:47.635Z,28.34
2023-07-24T12:15:16.713Z,28.10
2023-07-24T12:17:45.780Z,28.31
2023-07-24T12:20:12.884Z,28.54
2023-07-24T12:22:39.773Z,28.78
2023-07-24T12:25:06.957Z,29.12
2023-07-24T12:27:33.829Z,29.37
2023-07-24T12:30:00.916Z,29.72
2023-07-24T12:32:27.800Z,30.09
2023-07-24T12:34:54.684Z,30.24
2023-07-24T12:37:21.486Z,30.52
2023-07-24T12:39:48.492Z,30.58
2023-07-24T12:42:15.570Z,30.80
2023-07-24T12:44:42.336Z,30.92
2023-07-24T12:47:09.320Z,30.82
2023-07-24T12:49:36.174Z,30.83
2023-07-24T12:52:03.672Z,30.99
2023-07-24T12:54:37.194Z,30.86
2023-07-24T12:57:13.956Z,30.70
2023-07-24T12:59:40.839Z,30.34
2023-07-24T13:02:08.084Z,29.90
2023-07-24T13:04:34.933Z,29.50
2023-07-24T13:07:01.692Z,29.24
2023-07-24T13:09:28.916Z,28.89
2023-07-24T13:11:55.811Z,28.44
2023-07-24T13:14:22.615Z,28.08
2023-07-24T13:16:49.588Z,27.68
2023-07-24T13:19:20.621Z,27.47
2023-07-24T13:21:48.359Z,27.10
2023-07-24T13:24:15.767Z,26.77
2023-07-24T13:26:42.609Z,26.45
2023-07-24T13:29:09.271Z,26.17
2023-07-24T13:31:36.700Z,25.87
2023-07-24T13:34:03.505Z,25.68
2023-07-24T13:36:30.661Z,25.45
2023-07-24T13:38:57.885Z,25.25
2023-07-24T13:41:24.730Z,25.18
2023-07-24T13:43:51.491Z,25.24
2023-07-24T13:46:18.522Z,25.59
2023-07-24T13:48:45.642Z,25.78
2023-07-24T13:51:12.487Z,25.88
2023-07-24T13:53:39.275Z,25.79
2023-07-24T13:56:06.414Z,25.54
2023-07-24T13:58:33.144Z,25.51
2023-07-24T14:01:00.002Z,25.35
2023-07-24T14:03:30.846Z,25.44
2023-07-24T14:05:59.219Z,25.66
2023-07-24T14:08:26.254Z,25.79
2023-07-24T14:10:53.063Z,25.86
2023-07-24T14:13:23.025Z,25.74
2023-07-24T14:15:49.820Z,25.63
2023-07-24T14:18:16.539Z,25.73
2023-07-24T14:20:43.320Z,25.97
2023-07-24T14:23:10.074Z,26.15
2023-07-24T14:25:36.984Z,26.27
2023-07-24T14:28:03.877Z,26.22
2023-07-24T14:30:30.772Z,26.15
2023-07-24T14:32:57.614Z,26.17
2023-07-24T14:35:24.432Z,26.27
2023-07-24T14:37:51.184Z,26.14
2023-07-24T14:40:18.150Z,26.08
2023-07-24T14:42:44.913Z,25.97
2023-07-24T14:45:11.843Z,25.73
2023-07-24T14:47:38.657Z,25.39
2023-07-24T14:50:05.964Z,25.17
2023-07-24T14:52:32.655Z,24.93
2023-07-24T14:54:59.383Z,25.12
2023-07-24T14:57:26.546Z,25.71
2023-07-24T14:59:53.867Z,26.39
2023-07-24T15:02:20.586Z,27.03
2023-07-24T15:04:47.351Z,27.55
2023-07-24T15:07:14.048Z,27.93
2023-07-24T15:09:40.856Z,27.95
2023-07-24T15:12:07.751Z,28.24
2023-07-24T15:14:34.570Z,28.54
2023-07-24T15:17:01.269Z,28.68
2023-07-24T15:19:28.060Z,28.75
2023-07-24T15:21:55.274Z,28.52
2023-07-24T15:24:22.531Z,28.30
2023-07-24T15:26:49.422Z,28.13
2023-07-24T15:29:19.430Z,27.91
2023-07-24T15:31:46.877Z,27.84
2023-07-24T15:34:14.012Z,27.48
2023-07-24T15:36:40.854Z,27.05
2023-07-24T15:39:07.637Z,26.62
2023-07-24T15:41:34.394Z,26.27
2023-07-24T15:44:01.264Z,26.01
2023-07-24T15:46:30.593Z,25.85
2023-07-24T15:48:57.793Z,25.67
2023-07-24T15:51:25.922Z,25.37
2023-07-24T15:53:52.694Z,25.12
2023-07-24T15:56:19.727Z,24.76
2023-07-24T15:58:47.411Z,23.10
2023-07-24T16:01:14.189Z,21.67
2023-07-24T16:03:41.030Z,21.12
2023-07-24T16:06:08.373Z,21.11
2023-07-24T16:08:35.152Z,21.32
2023-07-24T16:11:02.556Z,21.48
2023-07-24T16:13:29.281Z,21.59
2023-07-24T16:15:56.059Z,21.77
2023-07-24T16:18:22.904Z,22.00
2023-07-24T16:20:49.798Z,22.19
2023-07-24T16:23:16.544Z,22.50
2023-07-24T16:25:43.312Z,22.82
2023-07-24T16:28:10.067Z,23.07
2023-07-24T16:30:36.950Z,23.21
2023-07-24T16:33:03.951Z,23.27
2023-07-24T16:35:30.761Z,23.20
2023-07-24T16:37:57.479Z,23.13
2023-07-24T16:40:24.262Z,22.91
2023-07-24T16:42:56.029Z,22.61
2023-07-24T16:47:53.812Z,21.84
2023-07-24T16:50:20.716Z,21.44
2023-07-24T16:52:47.473Z,21.11
2023-07-24T16:55:14.180Z,20.97
2023-07-24T16:57:40.890Z,20.94
2023-07-24T17:00:08.083Z,21.04
2023-07-24T17:02:36.943Z,21.25
2023-07-24T17:05:03.833Z,21.52
2023-07-24T17:07:30.720Z,21.76
2023-07-24T17:09:57.369Z,21.79
2023-07-24T17:12:24.120Z,21.72
2023-07-24T17:14:52.287Z,21.65
2023-07-24T17:17:19.167Z,21.56
2023-07-24T17:19:45.970Z,21.45
2023-07-24T17:22:12.677Z,21.27
2023-07-24T17:24:39.517Z,21.16
2023-07-24T17:27:06.536Z,21.05
2023-07-24T17:29:33.358Z,20.82
2023-07-24T17:32:01.798Z,20.79
2023-07-24T17:34:28.599Z,20.77
2023-07-24T17:36:56.422Z,20.65
2023-07-24T17:39:23.204Z,20.52
2023-07-24T17:41:50.075Z,20.41
2023-07-24T17:44:16.820Z,20.31
2023-07-24T17:46:43.631Z,20.25
2023-07-24T17:49:10.807Z,20.20
2023-07-24T17:51:37.603Z,20.22
2023-07-24T17:54:04.430Z,20.29
2023-07-24T17:56:31.205Z,20.34
2023-07-24T17:58:57.971Z,20.39
2023-07-24T18:01:24.794Z,20.43
2023-07-24T18:03:51.622Z,20.47
2023-07-24T18:06:18.342Z,20.49
2023-07-24T18:08:45.108Z,20.49
2023-07-24T18:11:11.836Z,20.47
2023-07-24T18:13:38.605Z,20.36
2023-07-24T18:16:05.727Z,20.39
2023-07-24T18:18:32.456Z,20.43
2023-07-24T18:21:04.473Z,20.52
2023-07-24T18:23:34.065Z,20.46
2023-07-24T18:26:00.809Z,20.41
2023-07-24T18:28:27.605Z,20.42
2023-07-24T18:30:54.318Z,20.42
2023-07-24T18:33:20.969Z,20.41
2023-07-24T18:35:47.711Z,20.41
2023-07-24T18:38:14.660Z,20.32
2023-07-24T18:40:41.458Z,20.26
2023-07-24T18:43:08.221Z,20.25
2023-07-24T18:45:35.111Z,20.19
2023-07-24T18:48:02.987Z,20.12
2023-07-24T18:50:30.079Z,20.10
2023-07-24T18:52:56.885Z,20.06
2023-07-24T18:55:23.671Z,20.02
2023-07-24T18:57:50.511Z,19.94
2023-07-24T19:00:19.064Z,19.87
2023-07-24T19:02:48.532Z,19.82
2023-07-24T19:05:15.385Z,19.72
2023-07-24T19:07:42.105Z,19.64
2023-07-24T19:10:11.419Z,19.56
2023-07-24T19:12:39.789Z,19.44
2023-07-24T19:15:09.506Z,19.30
2023-07-24T19:17:36.433Z,19.18
2023-07-24T19:20:03.357Z,19.06
2023-07-24T19:22:30.096Z,18.96
2023-07-24T19:24:57.015Z,18.79
2023-07-24T19:27:23.783Z,18.65
2023-07-24T19:29:51.484Z,18.53
2023-07-24T19:32:18.365Z,18.33
2023-07-24T19:34:45.317Z,18.11
2023-07-24T19:37:12.231Z,18.03
2023-07-24T19:39:41.949Z,17.98
2023-07-24T19:42:12.229Z,17.99
2023-07-24T19:44:39.445Z,18.01
2023-07-24T19:47:06.374Z,18.00
2023-07-24T19:49:36.295Z,18.00
2023-07-24T19:52:03.247Z,18.01
2023-07-24T19:54:30.496Z,18.00
2023-07-24T19:56:57.515Z,18.00
2023-07-24T19:59:26.649Z,18.04
2023-07-24T20:01:56.870Z,18.07
2023-07-24T20:04:23.619Z,18.11
2023-07-24T20:06:50.359Z,18.10
2023-07-24T20:09:17.688Z,18.04
2023-07-24T20:11:46.678Z,18.02
2023-07-24T20:14:14.878Z,18.06
2023-07-24T20:16:41.828Z,18.03
2023-07-24T20:19:08.524Z,17.96
2023-07-24T20:21:35.276Z,17.91
2023-07-24T20:24:11.835Z,17.81
2023-07-24T20:26:38.669Z,17.68
2023-07-24T20:29:05.715Z,17.70
2023-07-24T20:31:32.955Z,17.73
2023-07-24T20:34:00.040Z,17.79
2023-07-24T20:36:26.780Z,17.81
2023-07-24T20:38:53.490Z,17.85
2023-07-24T20:41:20.309Z,17.91
2023-07-24T20:43:47.152Z,17.95
2023-07-24T20:46:14.975Z,18.04
2023-07-24T20:48:41.954Z,18.10
2023-07-24T20:51:21.540Z,18.07
2023-07-24T20:53:48.689Z,17.87
2023-07-24T20:56:15.531Z,17.75
2023-07-24T20:58:42.322Z,17.73
2023-07-24T21:01:09.696Z,17.69
2023-07-24T21:03:36.557Z,17.57
2023-07-24T21:06:04.014Z,17.55
2023-07-24T21:08:30.902Z,17.57
2023-07-24T21:10:57.644Z,17.60
2023-07-24T21:13:24.388Z,17.68
2023-07-24T21:15:55.869Z,17.69
2023-07-24T21:18:22.975Z,17.58
2023-07-24T21:20:49.763Z,17.47
2023-07-24T21:23:16.559Z,17.41
2023-07-24T21:25:51.520Z,17.38
2023-07-24T21:28:18.211Z,17.42
2023-07-24T21:30:44.971Z,17.47
2023-07-24T21:33:11.790Z,17.49
2023-07-24T21:35:38.631Z,17.43
2023-07-24T21:38:05.280Z,17.27
2023-07-24T21:40:32.061Z,17.17
2023-07-24T21:42:59.070Z,17.24
2023-07-24T21:45:26.015Z,17.40
2023-07-24T21:47:52.828Z,17.53
2023-07-24T21:50:19.637Z,17.64
2023-07-24T21:52:46.355Z,17.67
2023-07-24T21:55:13.061Z,17.59
2023-07-24T21:57:39.782Z,17.56
2023-07-24T22:00:06.919Z,17.57
2023-07-24T22:02:33.898Z,17.61
2023-07-24T22:05:00.691Z,17.68
2023-07-24T22:07:27.397Z,17.72
2023-07-24T22:09:54.200Z,17.80
2023-07-24T22:12:20.946Z,17.84
2023-07-24T22:14:47.716Z,17.84
2023-07-24T22:17:14.472Z,17.78
2023-07-24T22:19:41.209Z,17.74
2023-07-24T22:22:07.996Z,17.71
2023-07-24T22:24:35.216Z,17.73
2023-07-24T22:27:02.032Z,17.75
2023-07-24T22:29:28.868Z,17.64
2023-07-24T22:31:55.742Z,17.53
2023-07-24T22:34:22.466Z,17.41
2023-07-24T22:36:49.258Z,17.28
2023-07-24T22:39:16.540Z,17.24
2023-07-24T22:41:44.751Z,17.20
2023-07-24T22:44:11.700Z,17.27
2023-07-24T22:46:38.741Z,17.34
2023-07-24T22:49:06.142Z,17.35
2023-07-24T22:51:33.242Z,17.41
2023-07-24T22:54:00.548Z,17.42
2023-07-24T22:56:27.307Z,17.39
2023-07-24T22:59:12.669Z,17.41
2023-07-24T23:01:39.302Z,17.45
2023-07-24T23:04:06.151Z,17.47
2023-07-24T23:06:33.028Z,17.51
2023-07-24T23:08:59.732Z,17.45
2023-07-24T23:11:26.513Z,17.43
2023-07-24T23:13:53.347Z,17.44
2023-07-24T23:16:20.305Z,17.48
2023-07-24T23:18:47.024Z,17.50
2023-07-24T23:21:13.677Z,17.53
2023-07-24T23:23:40.454Z,17.53
2023-07-24T23:26:07.632Z,17.52
2023-07-24T23:28:34.307Z,17.54
2023-07-24T23:31:10.245Z,17.45
2023-07-24T23:33:37.433Z,17.32
2023-07-24T23:36:08.734Z,17.21
2023-07-24T23:38:36.454Z,17.27
2023-07-24T23:41:03.939Z,17.25
2023-07-24T23:43:30.752Z,17.16
2023-07-24T23:45:57.586Z,17.08
2023-07-24T23:48:24.616Z,17.07
2023-07-24T23:50:52.153Z,17.08
2023-07-24T23:53:19.623Z,17.17
2023-07-24T23:55:46.358Z,17.23
2023-07-24T23:58:13.133Z,17.34
